sensor_id;sensor_type;location;lat;lon;timestamp;P1;durP1;ratioP1;P2;durP2;ratioP2
8538;SDS011;4307;53.868;11.680;2023-03-14T00:00:39;3.53;;;2.10;;
8538;SDS011;4307;53.868;11.680;2023-03-14T00:03:05;2.03;;;1.83;;
8538;SDS011;4307;53.868;11.680;2023-03-14T00:05:33;2.53;;;1.93;;
8538;SDS011;4307;53.868;11.680;2023-03-14T00:08:00;2.47;;;2.10;;
8538;SDS011;4307;53.868;11.680;2023-03-14T00:10:26;3.20;;;2.20;;
8538;SDS011;4307;53.868;11.680;2023-03-14T00:12:54;3.13;;;2.07;;
8538;SDS011;4307;53.868;11.680;2023-03-14T00:15:21;6.43;;;2.00;;
8538;SDS011;4307;53.868;11.680;2023-03-14T00:17:48;2.17;;;1.97;;
8538;SDS011;4307;53.868;11.680;2023-03-14T00:20:14;3.30;;;2.27;;
8538;SDS011;4307;53.868;11.680;2023-03-14T00:22:41;5.43;;;2.27;;
8538;SDS011;4307;53.868;11.680;2023-03-14T00:25:08;2.13;;;1.90;;
8538;SDS011;4307;53.868;11.680;2023-03-14T00:27:36;3.50;;;2.00;;
8538;SDS011;4307;53.868;11.680;2023-03-14T00:30:05;3.43;;;1.70;;
8538;SDS011;4307;53.868;11.680;2023-03-14T00:32:33;2.10;;;1.90;;
8538;SDS011;4307;53.868;11.680;2023-03-14T00:35:00;4.73;;;2.00;;
8538;SDS011;4307;53.868;11.680;2023-03-14T00:37:28;2.23;;;1.93;;
8538;SDS011;4307;53.868;11.680;2023-03-14T00:39:54;2.07;;;1.87;;
8538;SDS011;4307;53.868;11.680;2023-03-14T00:42:22;3.50;;;2.27;;
8538;SDS011;4307;53.868;11.680;2023-03-14T00:44:49;2.67;;;2.10;;
8538;SDS011;4307;53.868;11.680;2023-03-14T00:47:17;2.47;;;2.23;;
8538;SDS011;4307;53.868;11.680;2023-03-14T00:49:43;3.43;;;1.90;;
8538;SDS011;4307;53.868;11.680;2023-03-14T00:52:10;4.90;;;2.07;;
8538;SDS011;4307;53.868;11.680;2023-03-14T00:54:37;4.90;;;2.13;;
8538;SDS011;4307;53.868;11.680;2023-03-14T00:57:03;5.20;;;2.03;;
8538;SDS011;4307;53.868;11.680;2023-03-14T00:59:30;2.80;;;1.97;;
8538;SDS011;4307;53.868;11.680;2023-03-14T01:01:57;3.10;;;1.87;;
8538;SDS011;4307;53.868;11.680;2023-03-14T01:04:24;4.77;;;2.17;;
8538;SDS011;4307;53.868;11.680;2023-03-14T01:06:52;4.20;;;2.03;;
8538;SDS011;4307;53.868;11.680;2023-03-14T01:09:19;2.93;;;2.47;;
8538;SDS011;4307;53.868;11.680;2023-03-14T01:11:46;3.63;;;2.57;;
8538;SDS011;4307;53.868;11.680;2023-03-14T01:14:13;2.70;;;2.30;;
8538;SDS011;4307;53.868;11.680;2023-03-14T01:16:40;2.53;;;2.33;;
8538;SDS011;4307;53.868;11.680;2023-03-14T01:19:07;3.37;;;2.70;;
8538;SDS011;4307;53.868;11.680;2023-03-14T01:21:36;3.77;;;2.53;;
8538;SDS011;4307;53.868;11.680;2023-03-14T01:24:03;3.27;;;2.53;;
8538;SDS011;4307;53.868;11.680;2023-03-14T01:26:32;4.13;;;2.50;;
8538;SDS011;4307;53.868;11.680;2023-03-14T01:29:00;2.70;;;2.30;;
8538;SDS011;4307;53.868;11.680;2023-03-14T01:31:28;5.77;;;2.53;;
8538;SDS011;4307;53.868;11.680;2023-03-14T01:33:55;5.33;;;2.43;;
8538;SDS011;4307;53.868;11.680;2023-03-14T01:36:22;4.20;;;2.60;;
8538;SDS011;4307;53.868;11.680;2023-03-14T01:38:50;3.07;;;2.50;;
8538;SDS011;4307;53.868;11.680;2023-03-14T01:41:17;4.30;;;2.90;;
8538;SDS011;4307;53.868;11.680;2023-03-14T01:43:46;4.53;;;2.40;;
8538;SDS011;4307;53.868;11.680;2023-03-14T01:46:20;4.57;;;2.50;;
8538;SDS011;4307;53.868;11.680;2023-03-14T01:48:52;3.60;;;2.90;;
8538;SDS011;4307;53.868;11.680;2023-03-14T01:51:24;3.80;;;2.67;;
8538;SDS011;4307;53.868;11.680;2023-03-14T01:53:55;5.33;;;2.83;;
8538;SDS011;4307;53.868;11.680;2023-03-14T01:56:29;4.63;;;2.60;;
8538;SDS011;4307;53.868;11.680;2023-03-14T01:58:57;4.77;;;2.70;;
8538;SDS011;4307;53.868;11.680;2023-03-14T02:01:25;3.43;;;2.57;;
8538;SDS011;4307;53.868;11.680;2023-03-14T02:03:53;6.50;;;2.20;;
8538;SDS011;4307;53.868;11.680;2023-03-14T02:06:23;2.40;;;2.20;;
8538;SDS011;4307;53.868;11.680;2023-03-14T02:08:52;3.57;;;2.60;;
8538;SDS011;4307;53.868;11.680;2023-03-14T02:11:20;6.13;;;2.67;;
8538;SDS011;4307;53.868;11.680;2023-03-14T02:13:52;3.63;;;2.40;;
8538;SDS011;4307;53.868;11.680;2023-03-14T02:16:19;4.73;;;2.60;;
8538;SDS011;4307;53.868;11.680;2023-03-14T02:18:46;4.40;;;2.60;;
8538;SDS011;4307;53.868;11.680;2023-03-14T02:21:14;4.00;;;2.90;;
8538;SDS011;4307;53.868;11.680;2023-03-14T02:23:47;4.67;;;2.83;;
8538;SDS011;4307;53.868;11.680;2023-03-14T02:26:26;5.80;;;2.80;;
8538;SDS011;4307;53.868;11.680;2023-03-14T02:28:59;3.23;;;2.60;;
8538;SDS011;4307;53.868;11.680;2023-03-14T02:31:26;8.63;;;2.60;;
8538;SDS011;4307;53.868;11.680;2023-03-14T02:33:53;7.20;;;2.67;;
8538;SDS011;4307;53.868;11.680;2023-03-14T02:36:20;6.83;;;2.53;;
8538;SDS011;4307;53.868;11.680;2023-03-14T02:38:50;5.97;;;2.47;;
8538;SDS011;4307;53.868;11.680;2023-03-14T02:41:21;6.77;;;2.60;;
8538;SDS011;4307;53.868;11.680;2023-03-14T02:43:48;6.23;;;2.90;;
8538;SDS011;4307;53.868;11.680;2023-03-14T02:46:18;6.47;;;2.60;;
8538;SDS011;4307;53.868;11.680;2023-03-14T02:48:47;7.70;;;3.10;;
8538;SDS011;4307;53.868;11.680;2023-03-14T02:51:17;8.00;;;2.80;;
8538;SDS011;4307;53.868;11.680;2023-03-14T02:53:44;10.10;;;3.50;;
8538;SDS011;4307;53.868;11.680;2023-03-14T02:56:11;7.20;;;2.80;;
8538;SDS011;4307;53.868;11.680;2023-03-14T02:58:38;4.50;;;2.60;;
8538;SDS011;4307;53.868;11.680;2023-03-14T03:01:05;10.77;;;3.10;;
8538;SDS011;4307;53.868;11.680;2023-03-14T03:03:33;3.87;;;2.47;;
8538;SDS011;4307;53.868;11.680;2023-03-14T03:06:00;4.57;;;2.67;;
8538;SDS011;4307;53.868;11.680;2023-03-14T03:08:27;4.50;;;2.50;;
8538;SDS011;4307;53.868;11.680;2023-03-14T03:10:55;5.97;;;2.53;;
8538;SDS011;4307;53.868;11.680;2023-03-14T03:13:23;8.07;;;2.50;;
8538;SDS011;4307;53.868;11.680;2023-03-14T03:15:49;4.37;;;2.20;;
8538;SDS011;4307;53.868;11.680;2023-03-14T03:18:16;5.60;;;2.70;;
8538;SDS011;4307;53.868;11.680;2023-03-14T03:20:44;5.40;;;2.10;;
8538;SDS011;4307;53.868;11.680;2023-03-14T03:23:11;6.70;;;2.40;;
8538;SDS011;4307;53.868;11.680;2023-03-14T03:25:38;4.77;;;2.80;;
8538;SDS011;4307;53.868;11.680;2023-03-14T03:28:04;6.43;;;2.57;;
8538;SDS011;4307;53.868;11.680;2023-03-14T03:30:33;2.37;;;2.17;;
8538;SDS011;4307;53.868;11.680;2023-03-14T03:33:02;8.77;;;2.57;;
8538;SDS011;4307;53.868;11.680;2023-03-14T03:35:29;6.20;;;2.57;;
8538;SDS011;4307;53.868;11.680;2023-03-14T03:37:57;3.87;;;2.27;;
8538;SDS011;4307;53.868;11.680;2023-03-14T03:40:23;3.57;;;2.27;;
8538;SDS011;4307;53.868;11.680;2023-03-14T03:42:50;8.43;;;2.47;;
8538;SDS011;4307;53.868;11.680;2023-03-14T03:45:17;4.00;;;2.20;;
8538;SDS011;4307;53.868;11.680;2023-03-14T03:47:43;7.50;;;2.67;;
8538;SDS011;4307;53.868;11.680;2023-03-14T03:50:10;4.10;;;2.30;;
8538;SDS011;4307;53.868;11.680;2023-03-14T03:52:37;4.00;;;2.30;;
8538;SDS011;4307;53.868;11.680;2023-03-14T03:55:05;2.80;;;1.80;;
8538;SDS011;4307;53.868;11.680;2023-03-14T03:57:32;4.43;;;2.40;;
8538;SDS011;4307;53.868;11.680;2023-03-14T03:59:59;4.33;;;2.50;;
8538;SDS011;4307;53.868;11.680;2023-03-14T04:02:25;5.20;;;2.40;;
8538;SDS011;4307;53.868;11.680;2023-03-14T04:04:52;2.77;;;2.23;;
8538;SDS011;4307;53.868;11.680;2023-03-14T04:07:19;4.93;;;2.27;;
8538;SDS011;4307;53.868;11.680;2023-03-14T04:09:45;2.90;;;2.20;;
8538;SDS011;4307;53.868;11.680;2023-03-14T04:12:13;7.07;;;2.93;;
8538;SDS011;4307;53.868;11.680;2023-03-14T04:14:40;2.93;;;2.20;;
8538;SDS011;4307;53.868;11.680;2023-03-14T04:17:07;4.37;;;2.03;;
8538;SDS011;4307;53.868;11.680;2023-03-14T04:19:33;5.00;;;2.40;;
8538;SDS011;4307;53.868;11.680;2023-03-14T04:22:00;4.03;;;2.50;;
8538;SDS011;4307;53.868;11.680;2023-03-14T04:24:26;3.37;;;2.40;;
8538;SDS011;4307;53.868;11.680;2023-03-14T04:26:53;3.30;;;2.10;;
8538;SDS011;4307;53.868;11.680;2023-03-14T04:29:21;4.17;;;2.40;;
8538;SDS011;4307;53.868;11.680;2023-03-14T04:31:48;3.83;;;2.40;;
8538;SDS011;4307;53.868;11.680;2023-03-14T04:34:14;5.13;;;2.63;;
8538;SDS011;4307;53.868;11.680;2023-03-14T04:36:41;5.83;;;2.40;;
8538;SDS011;4307;53.868;11.680;2023-03-14T04:39:08;5.27;;;2.40;;
8538;SDS011;4307;53.868;11.680;2023-03-14T04:41:34;3.03;;;2.07;;
8538;SDS011;4307;53.868;11.680;2023-03-14T04:44:01;4.17;;;2.43;;
8538;SDS011;4307;53.868;11.680;2023-03-14T04:46:29;3.77;;;2.07;;
8538;SDS011;4307;53.868;11.680;2023-03-14T04:48:55;4.03;;;2.30;;
8538;SDS011;4307;53.868;11.680;2023-03-14T04:51:22;4.70;;;2.30;;
8538;SDS011;4307;53.868;11.680;2023-03-14T04:53:52;3.07;;;2.20;;
8538;SDS011;4307;53.868;11.680;2023-03-14T04:56:19;6.17;;;2.67;;
8538;SDS011;4307;53.868;11.680;2023-03-14T04:58:46;7.23;;;2.47;;
8538;SDS011;4307;53.868;11.680;2023-03-14T05:01:12;4.03;;;2.50;;
8538;SDS011;4307;53.868;11.680;2023-03-14T05:03:40;4.00;;;2.00;;
8538;SDS011;4307;53.868;11.680;2023-03-14T05:06:07;5.40;;;1.90;;
8538;SDS011;4307;53.868;11.680;2023-03-14T05:08:34;5.37;;;2.30;;
8538;SDS011;4307;53.868;11.680;2023-03-14T05:11:01;2.23;;;2.03;;
8538;SDS011;4307;53.868;11.680;2023-03-14T05:13:28;3.17;;;2.07;;
8538;SDS011;4307;53.868;11.680;2023-03-14T05:16:02;2.90;;;1.70;;
8538;SDS011;4307;53.868;11.680;2023-03-14T05:18:30;5.87;;;2.27;;
8538;SDS011;4307;53.868;11.680;2023-03-14T05:20:58;4.63;;;2.53;;
8538;SDS011;4307;53.868;11.680;2023-03-14T05:23:25;4.27;;;1.90;;
8538;SDS011;4307;53.868;11.680;2023-03-14T05:25:51;3.60;;;2.20;;
8538;SDS011;4307;53.868;11.680;2023-03-14T05:28:18;5.50;;;2.87;;
8538;SDS011;4307;53.868;11.680;2023-03-14T05:30:45;4.17;;;2.27;;
8538;SDS011;4307;53.868;11.680;2023-03-14T05:33:12;5.27;;;2.37;;
8538;SDS011;4307;53.868;11.680;2023-03-14T05:35:39;4.47;;;2.53;;
8538;SDS011;4307;53.868;11.680;2023-03-14T05:38:06;4.80;;;2.00;;
8538;SDS011;4307;53.868;11.680;2023-03-14T05:40:33;4.13;;;2.03;;
8538;SDS011;4307;53.868;11.680;2023-03-14T05:43:01;3.87;;;2.13;;
8538;SDS011;4307;53.868;11.680;2023-03-14T05:45:27;2.87;;;2.03;;
8538;SDS011;4307;53.868;11.680;2023-03-14T05:47:54;3.23;;;1.80;;
8538;SDS011;4307;53.868;11.680;2023-03-14T05:50:21;5.37;;;2.57;;
8538;SDS011;4307;53.868;11.680;2023-03-14T05:52:47;3.50;;;2.30;;
8538;SDS011;4307;53.868;11.680;2023-03-14T05:55:15;6.57;;;2.70;;
8538;SDS011;4307;53.868;11.680;2023-03-14T05:57:42;4.47;;;2.27;;
8538;SDS011;4307;53.868;11.680;2023-03-14T06:00:09;5.67;;;1.77;;
8538;SDS011;4307;53.868;11.680;2023-03-14T06:02:36;2.87;;;2.30;;
8538;SDS011;4307;53.868;11.680;2023-03-14T06:05:03;2.20;;;1.90;;
8538;SDS011;4307;53.868;11.680;2023-03-14T06:07:31;7.63;;;2.10;;
8538;SDS011;4307;53.868;11.680;2023-03-14T06:09:57;2.73;;;1.93;;
8538;SDS011;4307;53.868;11.680;2023-03-14T06:12:25;9.43;;;2.50;;
8538;SDS011;4307;53.868;11.680;2023-03-14T06:14:53;5.40;;;2.37;;
8538;SDS011;4307;53.868;11.680;2023-03-14T06:17:19;3.63;;;2.13;;
8538;SDS011;4307;53.868;11.680;2023-03-14T06:19:46;7.83;;;2.23;;
8538;SDS011;4307;53.868;11.680;2023-03-14T06:22:13;1.70;;;1.60;;
8538;SDS011;4307;53.868;11.680;2023-03-14T06:24:39;2.97;;;2.00;;
8538;SDS011;4307;53.868;11.680;2023-03-14T06:27:06;4.67;;;2.10;;
8538;SDS011;4307;53.868;11.680;2023-03-14T06:29:34;4.30;;;2.50;;
8538;SDS011;4307;53.868;11.680;2023-03-14T06:32:01;4.60;;;2.13;;
8538;SDS011;4307;53.868;11.680;2023-03-14T06:34:28;5.10;;;2.17;;
8538;SDS011;4307;53.868;11.680;2023-03-14T06:36:54;3.70;;;1.93;;
8538;SDS011;4307;53.868;11.680;2023-03-14T06:39:21;7.67;;;2.33;;
8538;SDS011;4307;53.868;11.680;2023-03-14T06:41:48;3.67;;;2.00;;
8538;SDS011;4307;53.868;11.680;2023-03-14T06:44:14;4.33;;;2.10;;
8538;SDS011;4307;53.868;11.680;2023-03-14T06:46:42;4.30;;;2.40;;
8538;SDS011;4307;53.868;11.680;2023-03-14T06:49:09;4.07;;;1.93;;
8538;SDS011;4307;53.868;11.680;2023-03-14T06:51:36;3.37;;;1.70;;
8538;SDS011;4307;53.868;11.680;2023-03-14T06:54:02;4.03;;;1.90;;
8538;SDS011;4307;53.868;11.680;2023-03-14T06:56:29;3.17;;;1.70;;
8538;SDS011;4307;53.868;11.680;2023-03-14T06:58:56;5.40;;;2.50;;
8538;SDS011;4307;53.868;11.680;2023-03-14T07:01:23;4.50;;;1.67;;
8538;SDS011;4307;53.868;11.680;2023-03-14T07:03:53;2.67;;;1.60;;
8538;SDS011;4307;53.868;11.680;2023-03-14T07:06:19;5.03;;;1.87;;
8538;SDS011;4307;53.868;11.680;2023-03-14T07:08:46;4.07;;;1.80;;
8538;SDS011;4307;53.868;11.680;2023-03-14T07:11:14;2.60;;;1.10;;
8538;SDS011;4307;53.868;11.680;2023-03-14T07:13:41;3.27;;;2.03;;
8538;SDS011;4307;53.868;11.680;2023-03-14T07:16:08;1.67;;;1.37;;
8538;SDS011;4307;53.868;11.680;2023-03-14T07:18:35;5.73;;;1.90;;
8538;SDS011;4307;53.868;11.680;2023-03-14T07:21:03;1.40;;;1.30;;
8538;SDS011;4307;53.868;11.680;2023-03-14T07:23:31;5.00;;;1.90;;
8538;SDS011;4307;53.868;11.680;2023-03-14T07:25:57;4.30;;;1.93;;
8538;SDS011;4307;53.868;11.680;2023-03-14T07:28:24;4.53;;;1.90;;
8538;SDS011;4307;53.868;11.680;2023-03-14T07:30:52;3.53;;;1.73;;
8538;SDS011;4307;53.868;11.680;2023-03-14T07:33:18;2.90;;;1.80;;
8538;SDS011;4307;53.868;11.680;2023-03-14T07:35:46;3.10;;;1.83;;
8538;SDS011;4307;53.868;11.680;2023-03-14T07:38:14;3.37;;;1.87;;
8538;SDS011;4307;53.868;11.680;2023-03-14T07:40:41;1.53;;;1.43;;
8538;SDS011;4307;53.868;11.680;2023-03-14T07:43:08;4.37;;;1.80;;
8538;SDS011;4307;53.868;11.680;2023-03-14T07:45:34;1.93;;;1.53;;
8538;SDS011;4307;53.868;11.680;2023-03-14T07:48:01;3.73;;;1.70;;
8538;SDS011;4307;53.868;11.680;2023-03-14T07:50:28;1.73;;;1.60;;
8538;SDS011;4307;53.868;11.680;2023-03-14T07:52:54;1.60;;;1.50;;
8538;SDS011;4307;53.868;11.680;2023-03-14T07:55:22;2.57;;;1.97;;
8538;SDS011;4307;53.868;11.680;2023-03-14T07:57:49;3.47;;;1.90;;
8538;SDS011;4307;53.868;11.680;2023-03-14T08:00:16;2.13;;;1.90;;
8538;SDS011;4307;53.868;11.680;2023-03-14T08:02:43;3.47;;;1.77;;
8538;SDS011;4307;53.868;11.680;2023-03-14T08:05:10;3.50;;;2.10;;
8538;SDS011;4307;53.868;11.680;2023-03-14T08:07:36;4.33;;;2.23;;
8538;SDS011;4307;53.868;11.680;2023-03-14T08:10:03;3.43;;;1.97;;
8538;SDS011;4307;53.868;11.680;2023-03-14T08:12:32;2.97;;;1.80;;
8538;SDS011;4307;53.868;11.680;2023-03-14T08:14:58;3.83;;;1.83;;
8538;SDS011;4307;53.868;11.680;2023-03-14T08:17:25;6.70;;;2.00;;
8538;SDS011;4307;53.868;11.680;2023-03-14T08:19:52;4.17;;;2.20;;
8538;SDS011;4307;53.868;11.680;2023-03-14T08:22:18;3.67;;;1.90;;
8538;SDS011;4307;53.868;11.680;2023-03-14T08:24:45;1.70;;;1.60;;
8538;SDS011;4307;53.868;11.680;2023-03-14T08:27:12;4.07;;;1.93;;
8538;SDS011;4307;53.868;11.680;2023-03-14T08:29:40;5.53;;;2.20;;
8538;SDS011;4307;53.868;11.680;2023-03-14T08:32:07;2.83;;;2.20;;
8538;SDS011;4307;53.868;11.680;2023-03-14T08:34:34;3.40;;;2.10;;
8538;SDS011;4307;53.868;11.680;2023-03-14T08:37:00;2.13;;;1.90;;
8538;SDS011;4307;53.868;11.680;2023-03-14T08:39:27;3.37;;;2.10;;
8538;SDS011;4307;53.868;11.680;2023-03-14T08:41:54;4.70;;;1.90;;
8538;SDS011;4307;53.868;11.680;2023-03-14T08:44:20;9.07;;;2.30;;
8538;SDS011;4307;53.868;11.680;2023-03-14T08:46:48;2.67;;;2.10;;
8538;SDS011;4307;53.868;11.680;2023-03-14T08:49:15;2.80;;;2.07;;
8538;SDS011;4307;53.868;11.680;2023-03-14T08:51:41;8.67;;;2.10;;
8538;SDS011;4307;53.868;11.680;2023-03-14T08:54:09;6.97;;;2.10;;
8538;SDS011;4307;53.868;11.680;2023-03-14T08:56:36;4.87;;;1.87;;
8538;SDS011;4307;53.868;11.680;2023-03-14T08:59:03;1.60;;;1.50;;
8538;SDS011;4307;53.868;11.680;2023-03-14T09:01:30;4.97;;;1.87;;
8538;SDS011;4307;53.868;11.680;2023-03-14T09:03:58;4.17;;;1.67;;
8538;SDS011;4307;53.868;11.680;2023-03-14T09:06:25;3.80;;;1.70;;
8538;SDS011;4307;53.868;11.680;2023-03-14T09:08:51;3.30;;;1.50;;
8538;SDS011;4307;53.868;11.680;2023-03-14T09:11:18;1.80;;;1.33;;
8538;SDS011;4307;53.868;11.680;2023-03-14T09:13:45;3.87;;;1.67;;
8538;SDS011;4307;53.868;11.680;2023-03-14T09:16:13;4.70;;;1.63;;
8538;SDS011;4307;53.868;11.680;2023-03-14T09:18:40;2.27;;;1.30;;
8538;SDS011;4307;53.868;11.680;2023-03-14T09:21:08;4.30;;;1.60;;
8538;SDS011;4307;53.868;11.680;2023-03-14T09:23:35;2.23;;;1.53;;
8538;SDS011;4307;53.868;11.680;2023-03-14T09:26:01;1.87;;;1.17;;
8538;SDS011;4307;53.868;11.680;2023-03-14T09:28:28;4.67;;;1.50;;
8538;SDS011;4307;53.868;11.680;2023-03-14T09:30:55;2.47;;;1.87;;
8538;SDS011;4307;53.868;11.680;2023-03-14T09:33:22;3.17;;;1.77;;
8538;SDS011;4307;53.868;11.680;2023-03-14T09:35:48;3.80;;;1.97;;
8538;SDS011;4307;53.868;11.680;2023-03-14T09:38:16;4.63;;;1.70;;
8538;SDS011;4307;53.868;11.680;2023-03-14T09:40:45;1.90;;;1.70;;
8538;SDS011;4307;53.868;11.680;2023-03-14T09:43:13;5.17;;;2.30;;
8538;SDS011;4307;53.868;11.680;2023-03-14T09:45:41;4.10;;;1.80;;
8538;SDS011;4307;53.868;11.680;2023-03-14T09:48:12;4.33;;;2.30;;
8538;SDS011;4307;53.868;11.680;2023-03-14T09:50:43;3.07;;;1.93;;
8538;SDS011;4307;53.868;11.680;2023-03-14T09:53:13;6.70;;;2.43;;
8538;SDS011;4307;53.868;11.680;2023-03-14T09:55:43;4.80;;;2.43;;
8538;SDS011;4307;53.868;11.680;2023-03-14T09:58:12;3.33;;;2.30;;
8538;SDS011;4307;53.868;11.680;2023-03-14T10:00:42;4.33;;;2.47;;
8538;SDS011;4307;53.868;11.680;2023-03-14T10:03:18;6.17;;;2.30;;
8538;SDS011;4307;53.868;11.680;2023-03-14T10:05:48;4.40;;;2.57;;
8538;SDS011;4307;53.868;11.680;2023-03-14T10:08:15;5.00;;;2.50;;
8538;SDS011;4307;53.868;11.680;2023-03-14T10:10:43;5.30;;;3.07;;
8538;SDS011;4307;53.868;11.680;2023-03-14T10:13:13;4.53;;;2.80;;
8538;SDS011;4307;53.868;11.680;2023-03-14T10:15:46;5.63;;;2.70;;
8538;SDS011;4307;53.868;11.680;2023-03-14T10:18:14;4.43;;;3.13;;
8538;SDS011;4307;53.868;11.680;2023-03-14T10:20:42;4.90;;;2.70;;
8538;SDS011;4307;53.868;11.680;2023-03-14T10:23:19;6.20;;;3.67;;
8538;SDS011;4307;53.868;11.680;2023-03-14T10:26:00;3.87;;;2.50;;
8538;SDS011;4307;53.868;11.680;2023-03-14T10:28:37;4.57;;;3.03;;
8538;SDS011;4307;53.868;11.680;2023-03-14T10:31:06;5.63;;;3.00;;
8538;SDS011;4307;53.868;11.680;2023-03-14T10:33:33;4.50;;;2.70;;
8538;SDS011;4307;53.868;11.680;2023-03-14T10:36:03;6.30;;;3.10;;
8538;SDS011;4307;53.868;11.680;2023-03-14T10:38:33;4.57;;;3.03;;
8538;SDS011;4307;53.868;11.680;2023-03-14T10:41:13;4.90;;;3.43;;
8538;SDS011;4307;53.868;11.680;2023-03-14T10:43:42;6.57;;;3.43;;
8538;SDS011;4307;53.868;11.680;2023-03-14T10:46:11;6.10;;;3.23;;
8538;SDS011;4307;53.868;11.680;2023-03-14T10:48:40;5.77;;;2.80;;
8538;SDS011;4307;53.868;11.680;2023-03-14T10:51:09;4.90;;;3.30;;
8538;SDS011;4307;53.868;11.680;2023-03-14T10:53:41;4.90;;;3.20;;
8538;SDS011;4307;53.868;11.680;2023-03-14T10:56:13;6.60;;;3.30;;
8538;SDS011;4307;53.868;11.680;2023-03-14T10:58:41;7.50;;;3.60;;
8538;SDS011;4307;53.868;11.680;2023-03-14T11:01:19;5.37;;;3.23;;
8538;SDS011;4307;53.868;11.680;2023-03-14T11:03:56;4.40;;;3.03;;
8538;SDS011;4307;53.868;11.680;2023-03-14T11:06:28;3.27;;;2.97;;
8538;SDS011;4307;53.868;11.680;2023-03-14T11:09:03;2.80;;;2.60;;
8538;SDS011;4307;53.868;11.680;2023-03-14T11:11:38;5.23;;;2.67;;
8538;SDS011;4307;53.868;11.680;2023-03-14T11:14:12;5.27;;;3.33;;
8538;SDS011;4307;53.868;11.680;2023-03-14T11:16:52;5.73;;;2.87;;
8538;SDS011;4307;53.868;11.680;2023-03-14T11:19:31;2.47;;;0.70;;
8538;SDS011;4307;53.868;11.680;2023-03-14T11:22:13;1.37;;;0.47;;
8538;SDS011;4307;53.868;11.680;2023-03-14T11:24:55;2.13;;;0.63;;
8538;SDS011;4307;53.868;11.680;2023-03-14T11:27:36;1.93;;;0.70;;
8538;SDS011;4307;53.868;11.680;2023-03-14T11:30:14;2.00;;;0.90;;
8538;SDS011;4307;53.868;11.680;2023-03-14T11:32:44;1.23;;;0.73;;
8538;SDS011;4307;53.868;11.680;2023-03-14T11:35:16;0.77;;;0.47;;
8538;SDS011;4307;53.868;11.680;2023-03-14T11:37:46;0.50;;;0.50;;
8538;SDS011;4307;53.868;11.680;2023-03-14T11:40:18;2.87;;;0.73;;
8538;SDS011;4307;53.868;11.680;2023-03-14T11:42:49;2.63;;;0.97;;
8538;SDS011;4307;53.868;11.680;2023-03-14T11:45:22;2.53;;;0.67;;
8538;SDS011;4307;53.868;11.680;2023-03-14T11:47:56;1.70;;;1.07;;
8538;SDS011;4307;53.868;11.680;2023-03-14T11:50:33;2.10;;;1.07;;
8538;SDS011;4307;53.868;11.680;2023-03-14T11:53:03;2.63;;;0.60;;
8538;SDS011;4307;53.868;11.680;2023-03-14T11:55:35;0.90;;;0.70;;
8538;SDS011;4307;53.868;11.680;2023-03-14T11:58:09;7.10;;;3.57;;
8538;SDS011;4307;53.868;11.680;2023-03-14T12:00:41;2.33;;;0.97;;
8538;SDS011;4307;53.868;11.680;2023-03-14T12:03:11;1.90;;;0.70;;
8538;SDS011;4307;53.868;11.680;2023-03-14T12:05:58;1.87;;;0.60;;
8538;SDS011;4307;53.868;11.680;2023-03-14T12:08:38;1.00;;;0.50;;
8538;SDS011;4307;53.868;11.680;2023-03-14T12:11:10;1.13;;;0.70;;
8538;SDS011;4307;53.868;11.680;2023-03-14T12:13:41;1.20;;;0.63;;
8538;SDS011;4307;53.868;11.680;2023-03-14T12:16:20;1.57;;;0.60;;
8538;SDS011;4307;53.868;11.680;2023-03-14T12:18:57;0.50;;;0.50;;
8538;SDS011;4307;53.868;11.680;2023-03-14T12:22:01;2.23;;;0.90;;
8538;SDS011;4307;53.868;11.680;2023-03-14T12:24:53;0.83;;;0.77;;
8538;SDS011;4307;53.868;11.680;2023-03-14T12:27:43;1.80;;;0.60;;
8538;SDS011;4307;53.868;11.680;2023-03-14T12:30:39;3.27;;;1.90;;
8538;SDS011;4307;53.868;11.680;2023-03-14T12:35:58;3.53;;;1.50;;
8538;SDS011;4307;53.868;11.680;2023-03-14T12:38:29;6.60;;;1.50;;
8538;SDS011;4307;53.868;11.680;2023-03-14T12:41:08;2.43;;;0.90;;
8538;SDS011;4307;53.868;11.680;2023-03-14T12:43:41;3.63;;;1.10;;
8538;SDS011;4307;53.868;11.680;2023-03-14T12:46:14;9.50;;;1.60;;
8538;SDS011;4307;53.868;11.680;2023-03-14T12:48:45;8.50;;;1.90;;
8538;SDS011;4307;53.868;11.680;2023-03-14T12:51:14;6.37;;;1.63;;
8538;SDS011;4307;53.868;11.680;2023-03-14T12:53:51;3.60;;;1.43;;
8538;SDS011;4307;53.868;11.680;2023-03-14T12:56:45;6.60;;;1.90;;
8538;SDS011;4307;53.868;11.680;2023-03-14T12:59:29;3.90;;;1.50;;
8538;SDS011;4307;53.868;11.680;2023-03-14T13:02:00;3.13;;;1.87;;
8538;SDS011;4307;53.868;11.680;2023-03-14T13:04:43;3.57;;;1.30;;
8538;SDS011;4307;53.868;11.680;2023-03-14T13:07:11;2.03;;;1.70;;
8538;SDS011;4307;53.868;11.680;2023-03-14T13:12:27;6.70;;;1.63;;
8538;SDS011;4307;53.868;11.680;2023-03-14T13:14:57;5.73;;;1.20;;
8538;SDS011;4307;53.868;11.680;2023-03-14T13:17:27;4.83;;;1.80;;
8538;SDS011;4307;53.868;11.680;2023-03-14T13:19:57;4.53;;;1.10;;
8538;SDS011;4307;53.868;11.680;2023-03-14T13:22:30;3.53;;;1.27;;
8538;SDS011;4307;53.868;11.680;2023-03-14T13:25:00;3.67;;;1.60;;
8538;SDS011;4307;53.868;11.680;2023-03-14T13:27:30;6.50;;;1.50;;
8538;SDS011;4307;53.868;11.680;2023-03-14T13:29:58;8.73;;;2.00;;
8538;SDS011;4307;53.868;11.680;2023-03-14T13:32:27;7.00;;;1.57;;
8538;SDS011;4307;53.868;11.680;2023-03-14T13:34:55;5.87;;;1.67;;
8538;SDS011;4307;53.868;11.680;2023-03-14T13:37:22;6.73;;;1.67;;
8538;SDS011;4307;53.868;11.680;2023-03-14T13:39:50;6.10;;;1.40;;
8538;SDS011;4307;53.868;11.680;2023-03-14T13:42:18;7.57;;;1.47;;
8538;SDS011;4307;53.868;11.680;2023-03-14T13:44:45;6.93;;;1.50;;
8538;SDS011;4307;53.868;11.680;2023-03-14T13:47:13;8.43;;;1.50;;
8538;SDS011;4307;53.868;11.680;2023-03-14T13:49:43;5.17;;;2.00;;
8538;SDS011;4307;53.868;11.680;2023-03-14T13:52:21;10.57;;;1.73;;
8538;SDS011;4307;53.868;11.680;2023-03-14T13:54:55;3.23;;;1.53;;
8538;SDS011;4307;53.868;11.680;2023-03-14T13:57:21;8.27;;;2.30;;
8538;SDS011;4307;53.868;11.680;2023-03-14T13:59:59;7.33;;;2.07;;
8538;SDS011;4307;53.868;11.680;2023-03-14T14:02:30;6.17;;;1.83;;
8538;SDS011;4307;53.868;11.680;2023-03-14T14:04:59;7.00;;;1.70;;
8538;SDS011;4307;53.868;11.680;2023-03-14T14:07:27;5.87;;;1.97;;
8538;SDS011;4307;53.868;11.680;2023-03-14T14:09:54;8.87;;;2.23;;
8538;SDS011;4307;53.868;11.680;2023-03-14T14:12:22;5.80;;;1.53;;
8538;SDS011;4307;53.868;11.680;2023-03-14T14:14:54;7.70;;;1.87;;
8538;SDS011;4307;53.868;11.680;2023-03-14T14:17:25;8.53;;;2.57;;
8538;SDS011;4307;53.868;11.680;2023-03-14T14:19:56;6.80;;;1.57;;
8538;SDS011;4307;53.868;11.680;2023-03-14T14:22:26;9.13;;;2.20;;
8538;SDS011;4307;53.868;11.680;2023-03-14T14:24:53;5.13;;;1.50;;
8538;SDS011;4307;53.868;11.680;2023-03-14T14:27:23;8.13;;;1.57;;
8538;SDS011;4307;53.868;11.680;2023-03-14T14:29:57;6.27;;;1.67;;
8538;SDS011;4307;53.868;11.680;2023-03-14T14:32:26;7.77;;;1.90;;
8538;SDS011;4307;53.868;11.680;2023-03-14T14:34:57;3.40;;;1.73;;
8538;SDS011;4307;53.868;11.680;2023-03-14T14:37:27;7.73;;;2.13;;
8538;SDS011;4307;53.868;11.680;2023-03-14T14:39:56;9.53;;;2.07;;
8538;SDS011;4307;53.868;11.680;2023-03-14T14:42:25;6.93;;;1.57;;
8538;SDS011;4307;53.868;11.680;2023-03-14T14:44:53;4.93;;;1.37;;
8538;SDS011;4307;53.868;11.680;2023-03-14T14:47:22;4.73;;;1.53;;
8538;SDS011;4307;53.868;11.680;2023-03-14T14:49:50;10.37;;;2.47;;
8538;SDS011;4307;53.868;11.680;2023-03-14T14:52:19;6.73;;;1.50;;
8538;SDS011;4307;53.868;11.680;2023-03-14T14:54:51;5.73;;;1.53;;
8538;SDS011;4307;53.868;11.680;2023-03-14T14:57:20;7.60;;;1.40;;
8538;SDS011;4307;53.868;11.680;2023-03-14T14:59:49;13.03;;;2.80;;
8538;SDS011;4307;53.868;11.680;2023-03-14T15:02:28;7.27;;;2.20;;
8538;SDS011;4307;53.868;11.680;2023-03-14T15:04:57;8.03;;;2.57;;
8538;SDS011;4307;53.868;11.680;2023-03-14T15:07:23;7.53;;;2.07;;
8538;SDS011;4307;53.868;11.680;2023-03-14T15:09:51;4.17;;;1.57;;
8538;SDS011;4307;53.868;11.680;2023-03-14T15:12:18;10.30;;;2.00;;
8538;SDS011;4307;53.868;11.680;2023-03-14T15:14:45;18.13;;;2.23;;
8538;SDS011;4307;53.868;11.680;2023-03-14T15:17:12;14.63;;;3.03;;